Cedar Rapids, IA (52401)

8:18 PM CDT on April 30, 2017 (GMT -0500)
Downtown Cedar Rapids - KCRG | | Change Station

Elev 768 ft 41.98 °N, 91.66 °W | Updated 13 seconds ago

Rain
Rain
45.7 °F
Feels Like 41 °F
N
8.1
Wind Variable Wind from South
Gusts 24.0 mph

Today
High -- | Low -- °F
--% Chance of Precip.
Yesterday
High -- | Low -- °F
Precip. -- in
Pressure 29.49 in
Visibility 10.0 miles
Clouds Overcast 700 ft
Windchill 41 °F
Dew Point 44 °F
Humidity 94%
Rainfall 0.40 in
Snow Depth Not available.
6:03 AM 8:04 PM
Waxing Crescent, 28% visible
METAR KCID 010052Z 08020G26KT 10SM -RA OVC007 07/07 A2948 RMK AO2 PK WND 08029/0041 LTG DSNT N AND NE SLP986 P0004 T00720072 $
Pressure 29.49 in
Visibility 10.0 miles
Clouds Overcast 700 ft
Windchill 41 °F
Dew Point 44 °F
Humidity 94%
Rainfall 0.40 in
Snow Depth Not available.
6:03 AM 8:04 PM
Waxing Crescent, 28% visible
METAR KCID 010052Z 08020G26KT 10SM -RA OVC007 07/07 A2948 RMK AO2 PK WND 08029/0041 LTG DSNT N AND NE SLP986 P0004 T00720072 $

Get Severe Weather Alerts

Thanks for signing up!

Be on the lookout for a verification email in your inbox.

You'll start receiving the daily forecast at 8 AM.

×

10-Day Weather Forecast

Almanac

Astronomy

Apr. 30, 2017 Rise Set
Actual Time
Civil Twilight
Nautical Twilight
Astronomical Twilight
Moon
Length of Visible Light
Length of Day
Tomorrow will be .
, % of the Moon is Illuminated

Today's Extremes

State Highs State Lows

Community

WunderPhotos

WunderBlog® & News

Nearby

Air Quality

  Air Quality AQ Index Pollutant
Not available.

Snow Depth

Station Depth Elevation

Earthquake Activity

City Distance Mag. Time & Date
Minimum magnitude displayed is 2.5.

Coastal Water Temperatures

Place Temperature

Stations

Nearby Weather Stations

Station Location Temp. Windchill Dew Point Humidity Wind Precip. Elev Updated Type
                   

Watches & Warnings

There are currently no watches in effect.